createdAt,value
2023-05-05T00:00:11.779Z,26.32
2023-05-05T00:01:11.885Z,26.32
2023-05-05T00:02:11.959Z,26.32
2023-05-05T00:03:12.066Z,26.31
2023-05-05T00:04:12.171Z,26.32
2023-05-05T00:05:12.116Z,26.34
2023-05-05T00:06:12.228Z,26.31
2023-05-05T00:07:12.272Z,26.32
2023-05-05T00:08:12.368Z,26.31
2023-05-05T00:09:12.415Z,26.32
2023-05-05T00:10:12.510Z,26.30
2023-05-05T00:11:12.576Z,26.31
2023-05-05T00:12:12.665Z,26.30
2023-05-05T00:13:12.879Z,26.30
2023-05-05T00:14:12.820Z,26.31
2023-05-05T00:15:12.893Z,26.31
2023-05-05T00:16:12.957Z,26.31
2023-05-05T00:17:13.204Z,26.32
2023-05-05T00:18:13.098Z,26.31
2023-05-05T00:19:13.205Z,26.30
2023-05-05T00:20:13.258Z,26.28
2023-05-05T00:21:13.348Z,26.28
2023-05-05T00:22:13.406Z,26.27
2023-05-05T00:23:13.475Z,26.31
2023-05-05T00:24:13.561Z,26.30
2023-05-05T00:25:13.642Z,26.28
2023-05-05T00:26:13.736Z,26.31
2023-05-05T00:27:13.776Z,26.30
2023-05-05T00:28:13.863Z,26.28
2023-05-05T00:29:13.960Z,26.28
2023-05-05T00:30:14.014Z,26.30
2023-05-05T00:31:14.140Z,26.28
2023-05-05T00:32:14.204Z,26.28
2023-05-05T00:33:14.264Z,26.30
2023-05-05T00:34:14.347Z,26.27
2023-05-05T00:35:14.439Z,26.28
2023-05-05T00:36:14.491Z,26.30
2023-05-05T00:37:14.582Z,26.28
2023-05-05T00:38:14.639Z,26.28
2023-05-05T00:39:14.718Z,26.30
2023-05-05T00:40:14.805Z,26.27
2023-05-05T00:41:14.933Z,26.27
2023-05-05T00:42:14.969Z,26.30
2023-05-05T00:43:15.072Z,26.28
2023-05-05T00:44:15.114Z,26.30
2023-05-05T00:45:15.984Z,26.27
2023-05-05T00:46:15.320Z,26.27
2023-05-05T00:47:15.343Z,26.27
2023-05-05T00:48:15.426Z,26.27
2023-05-05T00:49:15.524Z,26.27
2023-05-05T00:50:15.570Z,26.27
2023-05-05T00:51:15.672Z,26.27
2023-05-05T00:52:15.772Z,26.28
2023-05-05T00:53:15.820Z,26.30
2023-05-05T00:54:15.920Z,26.30
2023-05-05T00:55:15.990Z,26.25
2023-05-05T00:56:16.101Z,26.27
2023-05-05T00:57:16.117Z,26.24
2023-05-05T00:58:16.212Z,26.25
2023-05-05T00:59:16.308Z,26.25
2023-05-05T01:00:16.370Z,26.25
2023-05-05T01:01:16.504Z,26.24
2023-05-05T01:02:16.522Z,26.24
2023-05-05T01:03:16.748Z,26.27
2023-05-05T01:04:16.710Z,26.25
2023-05-05T01:05:16.778Z,26.25
2023-05-05T01:06:16.860Z,26.25
2023-05-05T01:07:16.947Z,26.24
2023-05-05T01:08:16.995Z,26.25
2023-05-05T01:09:17.096Z,26.24
2023-05-05T01:10:20.164Z,26.25
2023-05-05T01:11:17.243Z,26.24
2023-05-05T01:12:17.202Z,26.24
2023-05-05T01:13:17.217Z,26.22
2023-05-05T01:14:17.254Z,26.25
2023-05-05T01:15:17.311Z,26.25
2023-05-05T01:16:17.342Z,26.25
2023-05-05T01:17:17.396Z,26.24
2023-05-05T01:18:17.350Z,26.22
2023-05-05T01:19:17.398Z,26.24
2023-05-05T01:20:17.397Z,26.24
2023-05-05T01:21:17.378Z,26.24
2023-05-05T01:22:17.430Z,26.25
2023-05-05T01:23:17.430Z,26.22
2023-05-05T01:24:17.458Z,26.22
2023-05-05T01:25:17.461Z,26.25
2023-05-05T01:26:17.457Z,26.25
2023-05-05T01:27:17.514Z,26.25
2023-05-05T01:28:17.527Z,26.22
2023-05-05T01:29:17.551Z,26.22
2023-05-05T01:30:17.650Z,26.22
2023-05-05T01:31:17.715Z,26.20
2023-05-05T01:32:17.693Z,26.22
2023-05-05T01:33:17.685Z,26.21
2023-05-05T01:34:17.690Z,26.21
2023-05-05T01:35:17.815Z,26.21
2023-05-05T01:36:17.791Z,26.22
2023-05-05T01:37:17.794Z,26.21
2023-05-05T01:38:17.807Z,26.21
2023-05-05T01:39:17.845Z,26.21
2023-05-05T01:40:17.878Z,26.21
2023-05-05T01:41:17.926Z,26.21
2023-05-05T01:42:17.948Z,26.20
2023-05-05T01:43:17.955Z,26.21
2023-05-05T01:44:18.013Z,26.17
2023-05-05T01:45:18.075Z,26.21
2023-05-05T01:46:18.198Z,26.21
2023-05-05T01:47:18.201Z,26.20
2023-05-05T01:48:18.335Z,26.21
2023-05-05T01:49:18.405Z,26.20
2023-05-05T01:50:18.440Z,26.18
2023-05-05T01:51:18.540Z,26.20
2023-05-05T01:52:18.596Z,26.17
2023-05-05T01:53:18.658Z,26.17
2023-05-05T01:54:18.748Z,26.15
2023-05-05T01:55:18.871Z,26.18
2023-05-05T01:56:18.958Z,26.20
2023-05-05T01:57:19.022Z,26.17
2023-05-05T01:58:19.103Z,26.18
2023-05-05T01:59:19.175Z,26.17
2023-05-05T02:00:19.261Z,26.20
2023-05-05T02:01:19.357Z,26.17
2023-05-05T02:02:19.460Z,26.18
2023-05-05T02:03:19.684Z,26.14
2023-05-05T02:04:19.568Z,26.18
2023-05-05T02:05:19.707Z,26.18
2023-05-05T02:06:19.730Z,26.18
2023-05-05T02:07:19.844Z,26.17
2023-05-05T02:08:19.958Z,26.15
2023-05-05T02:09:20.025Z,26.18
2023-05-05T02:10:20.088Z,26.17
2023-05-05T02:11:20.181Z,26.18
2023-05-05T02:12:20.243Z,26.17
2023-05-05T02:13:20.393Z,26.18
2023-05-05T02:14:21.557Z,26.17
2023-05-05T02:15:20.504Z,26.18
2023-05-05T02:16:20.601Z,26.17
2023-05-05T02:17:20.690Z,26.17
2023-05-05T02:18:20.774Z,26.15
2023-05-05T02:19:20.845Z,26.14
2023-05-05T02:20:20.903Z,26.15
2023-05-05T02:21:21.068Z,26.15
2023-05-05T02:22:21.113Z,26.15
2023-05-05T02:23:21.138Z,26.14
2023-05-05T02:24:21.264Z,26.17
2023-05-05T02:25:21.328Z,26.14
2023-05-05T02:26:21.435Z,26.14
2023-05-05T02:27:21.516Z,26.14
2023-05-05T02:28:21.627Z,26.14
2023-05-05T02:29:21.660Z,26.14
2023-05-05T02:30:21.738Z,26.14
2023-05-05T02:31:21.873Z,26.14
2023-05-05T02:32:21.969Z,26.14
2023-05-05T02:33:22.022Z,26.12
2023-05-05T02:34:22.106Z,26.12
2023-05-05T02:35:22.170Z,26.14
2023-05-05T02:36:22.272Z,26.12
2023-05-05T02:37:22.381Z,26.12
2023-05-05T02:38:22.437Z,26.11
2023-05-05T02:39:22.545Z,26.14
2023-05-05T02:40:22.627Z,26.14
2023-05-05T02:41:22.713Z,26.09
2023-05-05T02:42:22.798Z,26.12
2023-05-05T02:43:22.930Z,26.12
2023-05-05T02:44:22.942Z,26.12
2023-05-05T02:45:23.041Z,26.12
2023-05-05T02:46:23.211Z,26.14
2023-05-05T02:47:23.244Z,26.09
2023-05-05T02:48:23.307Z,26.12
2023-05-05T02:49:23.388Z,26.12
2023-05-05T02:50:23.476Z,26.11
2023-05-05T02:51:23.580Z,26.11
2023-05-05T02:52:23.651Z,26.08
2023-05-05T02:53:23.743Z,26.11
2023-05-05T02:54:23.817Z,26.11
2023-05-05T02:55:23.882Z,26.09
2023-05-05T02:56:23.970Z,26.11
2023-05-05T02:57:24.044Z,26.09
2023-05-05T02:58:24.152Z,26.11
2023-05-05T02:59:24.241Z,26.09
2023-05-05T03:00:24.345Z,26.09
2023-05-05T03:01:24.467Z,26.12
2023-05-05T03:02:24.544Z,26.09
2023-05-05T03:03:24.611Z,26.11
2023-05-05T03:04:24.676Z,26.09
2023-05-05T03:05:24.763Z,26.09
2023-05-05T03:06:24.821Z,26.08
2023-05-05T03:07:24.938Z,26.11
2023-05-05T03:08:25.012Z,26.08
2023-05-05T03:09:25.068Z,26.08
2023-05-05T03:10:25.159Z,26.07
2023-05-05T03:11:25.264Z,26.09
2023-05-05T03:12:25.320Z,26.07
2023-05-05T03:13:25.429Z,26.07
2023-05-05T03:14:25.467Z,26.08
2023-05-05T03:15:25.570Z,26.08
2023-05-05T03:16:25.657Z,26.07
2023-05-05T03:17:25.819Z,26.08
2023-05-05T03:18:25.806Z,26.08
2023-05-05T03:19:25.867Z,26.07
2023-05-05T03:20:27.654Z,26.08
2023-05-05T03:21:26.048Z,26.08
2023-05-05T03:22:26.155Z,26.09
2023-05-05T03:23:26.196Z,26.07
2023-05-05T03:24:26.337Z,26.05
2023-05-05T03:25:26.382Z,26.07
2023-05-05T03:26:26.484Z,26.08
2023-05-05T03:27:26.520Z,26.07
2023-05-05T03:28:26.572Z,26.07
2023-05-05T03:29:26.687Z,26.08
2023-05-05T03:30:26.716Z,26.07
2023-05-05T03:31:26.816Z,26.04
2023-05-05T03:32:26.894Z,26.05
2023-05-05T03:33:26.926Z,26.04
2023-05-05T03:34:26.990Z,26.04
2023-05-05T03:35:27.074Z,26.04
2023-05-05T03:36:28.597Z,26.05
2023-05-05T03:37:27.258Z,26.04
2023-05-05T03:38:27.359Z,26.04
2023-05-05T03:39:27.420Z,26.04
2023-05-05T03:40:40.437Z,26.04
2023-05-05T03:41:28.549Z,26.04
2023-05-05T03:42:27.606Z,26.05
2023-05-05T03:43:27.605Z,26.04
2023-05-05T03:44:27.613Z,26.04
2023-05-05T03:45:27.635Z,26.02
2023-05-05T03:46:27.686Z,26.02
2023-05-05T03:47:27.719Z,26.04
2023-05-05T03:48:27.691Z,26.04
2023-05-05T03:49:27.697Z,26.04
2023-05-05T03:50:27.745Z,26.05
2023-05-05T03:51:27.818Z,26.01
2023-05-05T03:52:27.887Z,26.02
2023-05-05T03:53:27.997Z,26.04
2023-05-05T03:54:28.097Z,26.04
2023-05-05T03:55:28.147Z,26.01
2023-05-05T03:56:28.222Z,26.04
2023-05-05T03:57:28.292Z,26.02
2023-05-05T03:58:28.343Z,26.04
2023-05-05T03:59:28.424Z,26.01
2023-05-05T04:00:28.547Z,26.02
2023-05-05T04:01:28.578Z,26.01
2023-05-05T04:02:28.769Z,26.02
2023-05-05T04:03:28.812Z,26.02
2023-05-05T04:04:28.909Z,26.04
2023-05-05T04:05:28.875Z,26.01
2023-05-05T04:06:28.957Z,26.02
2023-05-05T04:07:29.060Z,26.01
2023-05-05T04:08:29.142Z,26.01
2023-05-05T04:09:29.174Z,26.01
2023-05-05T04:10:29.239Z,26.04
2023-05-05T04:11:29.326Z,26.00
2023-05-05T04:12:29.405Z,26.01
2023-05-05T04:13:29.475Z,26.02
2023-05-05T04:14:29.523Z,26.01
2023-05-05T04:15:29.579Z,26.01
2023-05-05T04:16:29.749Z,26.02
2023-05-05T04:17:29.741Z,26.01
2023-05-05T04:18:29.785Z,26.01
2023-05-05T04:19:29.851Z,26.00
2023-05-05T04:20:29.925Z,26.00
2023-05-05T04:21:30.004Z,26.00
2023-05-05T04:22:30.042Z,26.00
2023-05-05T04:23:30.106Z,26.02
2023-05-05T04:24:30.163Z,26.00
2023-05-05T04:25:30.212Z,26.04
2023-05-05T04:26:30.278Z,26.00
2023-05-05T04:27:30.379Z,26.01
2023-05-05T04:28:30.421Z,26.02
2023-05-05T04:29:30.440Z,26.01
2023-05-05T04:30:30.528Z,26.01
2023-05-05T04:31:30.640Z,26.00
2023-05-05T04:32:30.639Z,26.01
2023-05-05T04:33:30.699Z,26.00
2023-05-05T04:34:30.790Z,26.01
2023-05-05T04:35:30.887Z,26.01
2023-05-05T04:36:30.957Z,26.01
2023-05-05T04:37:31.064Z,26.00
2023-05-05T04:38:31.127Z,26.02
2023-05-05T04:39:31.168Z,26.00
2023-05-05T04:40:31.247Z,26.01
2023-05-05T04:41:31.607Z,26.00
2023-05-05T04:42:31.338Z,26.00
2023-05-05T04:43:31.405Z,25.98
2023-05-05T04:44:31.471Z,26.01
2023-05-05T04:45:31.553Z,26.00
2023-05-05T04:46:31.728Z,26.01
2023-05-05T04:47:31.724Z,26.00
2023-05-05T04:48:31.784Z,26.02
2023-05-05T04:49:31.889Z,26.00
2023-05-05T04:50:31.941Z,26.00
2023-05-05T04:51:32.021Z,26.00
2023-05-05T04:52:32.126Z,25.98
2023-05-05T04:53:32.199Z,25.98
2023-05-05T04:54:32.233Z,26.00
2023-05-05T04:55:32.392Z,26.01
2023-05-05T04:56:32.452Z,25.95
2023-05-05T04:57:32.479Z,26.00
2023-05-05T04:58:32.586Z,26.00
2023-05-05T04:59:32.686Z,26.01
2023-05-05T05:00:32.750Z,26.01
2023-05-05T05:01:33.009Z,26.01
2023-05-05T05:02:33.065Z,26.00
2023-05-05T05:03:33.045Z,25.98
2023-05-05T05:04:33.096Z,26.00
2023-05-05T05:05:33.157Z,26.02
2023-05-05T05:06:33.227Z,26.01
2023-05-05T05:07:33.308Z,26.00
2023-05-05T05:08:33.416Z,26.01
2023-05-05T05:09:33.466Z,25.98
2023-05-05T05:10:33.596Z,26.00
2023-05-05T05:11:33.617Z,26.01
2023-05-05T05:12:33.685Z,26.00
2023-05-05T05:13:33.715Z,25.98
2023-05-05T05:14:33.808Z,26.00
2023-05-05T05:15:33.837Z,26.01
2023-05-05T05:16:34.004Z,25.98
2023-05-05T05:17:34.068Z,26.01
2023-05-05T05:18:34.149Z,25.98
2023-05-05T05:19:34.155Z,26.00
2023-05-05T05:20:34.248Z,26.02
2023-05-05T05:21:34.299Z,25.98
2023-05-05T05:22:34.352Z,26.00
2023-05-05T05:23:34.489Z,25.98
2023-05-05T05:24:34.546Z,26.00
2023-05-05T05:25:34.698Z,26.00
2023-05-05T05:26:34.741Z,25.98
2023-05-05T05:27:34.841Z,25.98
2023-05-05T05:28:34.907Z,26.01
2023-05-05T05:29:35.021Z,26.01
2023-05-05T05:30:35.028Z,26.00
2023-05-05T05:31:35.138Z,25.98
2023-05-05T05:32:35.162Z,25.98
2023-05-05T05:33:35.220Z,26.02
2023-05-05T05:34:35.278Z,26.00
2023-05-05T05:35:35.344Z,26.00
2023-05-05T05:36:35.394Z,25.98
2023-05-05T05:37:35.450Z,25.95
2023-05-05T05:38:35.533Z,25.92
2023-05-05T05:39:35.624Z,25.92
2023-05-05T05:40:35.641Z,25.91
2023-05-05T05:41:35.707Z,25.94
2023-05-05T05:42:35.774Z,25.95
2023-05-05T05:43:35.848Z,26.00
2023-05-05T05:44:35.941Z,26.02
2023-05-05T05:45:36.027Z,26.04
2023-05-05T05:46:36.204Z,26.08
2023-05-05T05:47:37.128Z,26.11
2023-05-05T05:48:36.277Z,26.17
2023-05-05T05:49:36.352Z,26.18
2023-05-05T05:50:36.427Z,26.24
2023-05-05T05:51:36.512Z,26.25
2023-05-05T05:52:36.543Z,26.30
2023-05-05T05:53:36.633Z,26.31
2023-05-05T05:54:36.680Z,26.32
2023-05-05T05:55:36.727Z,26.35
2023-05-05T05:56:36.797Z,26.39
2023-05-05T05:57:36.858Z,26.38
2023-05-05T05:58:36.923Z,26.45
2023-05-05T05:59:36.970Z,26.46
2023-05-05T06:00:37.026Z,26.49
2023-05-05T06:01:37.229Z,26.51
2023-05-05T06:02:37.175Z,26.55
2023-05-05T06:03:37.248Z,26.56
2023-05-05T06:04:37.355Z,26.59
2023-05-05T06:05:37.525Z,26.60
2023-05-05T06:06:37.641Z,26.65
2023-05-05T06:07:37.386Z,26.66
2023-05-05T06:08:37.405Z,26.66
2023-05-05T06:09:37.446Z,26.69
2023-05-05T06:10:37.464Z,26.69
2023-05-05T06:11:37.629Z,26.73
2023-05-05T06:12:37.545Z,26.75
2023-05-05T06:13:37.573Z,26.78
2023-05-05T06:14:37.620Z,26.76
2023-05-05T06:15:37.688Z,26.79
2023-05-05T06:16:37.664Z,26.78
2023-05-05T06:17:37.824Z,26.79
2023-05-05T06:18:37.745Z,26.79
2023-05-05T06:19:37.781Z,26.85
2023-05-05T06:20:37.798Z,26.82
2023-05-05T06:21:37.799Z,26.82
2023-05-05T06:22:37.854Z,26.83
2023-05-05T06:23:37.865Z,26.85
2023-05-05T06:24:37.874Z,26.79
2023-05-05T06:25:37.870Z,26.82
2023-05-05T06:26:37.889Z,26.83
2023-05-05T06:27:37.945Z,26.83
2023-05-05T06:28:37.942Z,26.81
2023-05-05T06:29:37.980Z,26.83
2023-05-05T06:30:37.966Z,26.81
2023-05-05T06:31:38.023Z,26.83
2023-05-05T06:32:38.034Z,26.85
2023-05-05T06:33:38.040Z,26.86
2023-05-05T06:34:38.075Z,26.86
2023-05-05T06:35:38.095Z,26.86
2023-05-05T06:36:38.154Z,26.85
2023-05-05T06:37:38.128Z,26.83
2023-05-05T06:38:38.172Z,26.82
2023-05-05T06:39:38.246Z,26.85
2023-05-05T06:40:38.311Z,26.86
2023-05-05T06:41:38.354Z,26.86
2023-05-05T06:42:38.427Z,26.86
2023-05-05T06:43:38.434Z,26.85
2023-05-05T06:44:38.486Z,26.89
2023-05-05T06:45:38.513Z,26.87
2023-05-05T06:46:38.667Z,26.89
2023-05-05T06:47:38.663Z,26.92
2023-05-05T06:48:38.644Z,26.92
2023-05-05T06:49:38.704Z,26.95
2023-05-05T06:50:38.733Z,26.96
2023-05-05T06:51:39.672Z,26.99
2023-05-05T06:52:38.837Z,26.97
2023-05-05T06:53:38.853Z,27.02
2023-05-05T06:54:38.843Z,27.00
2023-05-05T06:55:38.884Z,27.02
2023-05-05T06:56:38.890Z,27.03
2023-05-05T06:57:39.091Z,27.03
2023-05-05T06:58:38.998Z,27.07
2023-05-05T06:59:38.958Z,27.07
2023-05-05T07:00:38.998Z,27.09
2023-05-05T07:01:39.022Z,27.09
2023-05-05T07:02:39.119Z,27.11
2023-05-05T07:03:39.106Z,27.10
2023-05-05T07:04:39.083Z,27.13
2023-05-05T07:05:39.105Z,27.14
2023-05-05T07:06:39.178Z,27.13
2023-05-05T07:07:39.096Z,27.13
2023-05-05T07:08:39.124Z,27.11
2023-05-05T07:09:39.163Z,27.14
2023-05-05T07:10:39.404Z,27.14
2023-05-05T07:11:39.679Z,27.13
2023-05-05T07:12:39.276Z,27.13
2023-05-05T07:13:39.503Z,27.14
2023-05-05T07:14:39.293Z,27.16
2023-05-05T07:15:39.321Z,27.16
2023-05-05T07:16:39.426Z,27.13
2023-05-05T07:17:39.407Z,27.14
2023-05-05T07:18:39.384Z,27.11
2023-05-05T07:19:39.398Z,27.13
2023-05-05T07:20:39.438Z,27.16
2023-05-05T07:21:39.455Z,27.17
2023-05-05T07:22:39.475Z,27.14
2023-05-05T07:23:39.457Z,27.17
2023-05-05T07:24:39.504Z,27.20
2023-05-05T07:25:39.545Z,27.20
2023-05-05T07:26:39.557Z,27.17
2023-05-05T07:27:39.587Z,27.17
2023-05-05T07:28:39.597Z,27.17
2023-05-05T07:29:39.786Z,27.13
2023-05-05T07:30:39.642Z,27.16
2023-05-05T07:31:39.715Z,27.16
2023-05-05T07:32:39.710Z,27.16
2023-05-05T07:33:39.712Z,27.17
2023-05-05T07:34:39.714Z,27.17
2023-05-05T07:35:39.747Z,27.18
2023-05-05T07:36:40.165Z,27.22
2023-05-05T07:37:39.798Z,27.20
2023-05-05T07:38:39.859Z,27.22
2023-05-05T07:39:39.859Z,27.20
2023-05-05T07:40:39.864Z,27.22
2023-05-05T07:41:40.159Z,27.20
2023-05-05T07:42:39.885Z,27.27
2023-05-05T07:43:40.896Z,27.22
2023-05-05T07:44:39.935Z,27.23
2023-05-05T07:45:40.173Z,27.26
2023-05-05T07:46:39.958Z,27.26
2023-05-05T07:47:40.049Z,27.23
2023-05-05T07:48:39.994Z,27.23
2023-05-05T07:49:40.003Z,27.23
2023-05-05T07:50:40.057Z,27.24
2023-05-05T07:51:40.062Z,27.26
2023-05-05T07:53:40.048Z,27.26
2023-05-05T07:54:40.076Z,27.29
2023-05-05T07:55:40.158Z,27.29
2023-05-05T07:56:40.090Z,27.32
2023-05-05T07:57:40.107Z,27.33
2023-05-05T07:58:40.133Z,27.34
2023-05-05T07:59:40.121Z,27.33
2023-05-05T08:00:40.136Z,27.36
2023-05-05T08:01:40.217Z,27.36
2023-05-05T08:02:40.244Z,27.37
2023-05-05T08:03:40.275Z,27.37
2023-05-05T08:04:40.183Z,27.40
2023-05-05T08:05:40.158Z,27.41
2023-05-05T08:06:41.136Z,27.38
2023-05-05T08:07:40.145Z,27.40
2023-05-05T08:08:40.155Z,27.41
2023-05-05T08:09:40.200Z,27.44
2023-05-05T08:10:40.173Z,27.44
2023-05-05T08:11:40.153Z,27.46
2023-05-05T08:12:40.276Z,27.41
2023-05-05T08:13:40.126Z,27.46
2023-05-05T08:14:40.138Z,27.46
2023-05-05T08:15:40.193Z,27.47
2023-05-05T08:16:40.176Z,27.48
2023-05-05T08:17:40.330Z,27.47
2023-05-05T08:18:40.165Z,27.48
2023-05-05T08:19:40.176Z,27.47
2023-05-05T08:20:40.151Z,27.50
2023-05-05T08:21:40.151Z,27.50
2023-05-05T08:22:40.199Z,27.48
2023-05-05T08:23:40.198Z,27.51
2023-05-05T08:24:40.192Z,27.50
2023-05-05T08:25:40.238Z,27.47
2023-05-05T08:26:40.246Z,27.48
2023-05-05T08:27:40.230Z,27.50
2023-05-05T08:28:40.264Z,27.53
2023-05-05T08:29:40.258Z,27.50
2023-05-05T08:30:40.260Z,27.51
2023-05-05T08:31:40.351Z,27.53
2023-05-05T08:32:40.408Z,27.50
2023-05-05T08:33:40.516Z,27.51
2023-05-05T08:34:40.486Z,27.51
2023-05-05T08:35:40.545Z,27.51
2023-05-05T08:36:40.592Z,27.54
2023-05-05T08:37:40.736Z,27.53
2023-05-05T08:38:40.705Z,27.56
2023-05-05T08:39:40.786Z,27.56
2023-05-05T08:40:40.844Z,27.51
2023-05-05T08:41:40.914Z,27.54
2023-05-05T08:42:40.989Z,27.56
2023-05-05T08:43:41.055Z,27.57
2023-05-05T08:44:41.149Z,27.56
2023-05-05T08:45:41.184Z,27.58
2023-05-05T08:46:41.262Z,27.60
2023-05-05T08:47:41.769Z,27.57
2023-05-05T08:48:41.416Z,27.57
2023-05-05T08:49:41.650Z,27.57
2023-05-05T08:50:41.525Z,27.54
2023-05-05T08:51:41.541Z,27.51
2023-05-05T08:52:41.851Z,27.41
2023-05-05T08:53:41.586Z,27.37
2023-05-05T08:54:41.640Z,27.36
2023-05-05T08:55:41.637Z,27.36
2023-05-05T08:56:41.664Z,27.37
2023-05-05T08:57:41.692Z,27.38
2023-05-05T08:58:41.723Z,27.41
2023-05-05T08:59:41.871Z,27.43
2023-05-05T09:00:41.901Z,27.43
2023-05-05T09:01:41.977Z,27.44
2023-05-05T09:02:42.129Z,27.44
2023-05-05T09:03:42.349Z,27.48
2023-05-05T09:04:42.249Z,27.48
2023-05-05T09:05:42.388Z,27.51
2023-05-05T09:06:42.363Z,27.53
2023-05-05T09:07:42.714Z,27.53
2023-05-05T09:08:42.510Z,27.54
2023-05-05T09:09:42.580Z,27.54
2023-05-05T09:10:42.655Z,27.56
2023-05-05T09:11:42.715Z,27.56
2023-05-05T09:12:42.858Z,27.54
2023-05-05T09:13:42.834Z,27.56
2023-05-05T09:14:42.894Z,27.56
2023-05-05T09:15:42.941Z,27.53
2023-05-05T09:16:43.035Z,27.57
2023-05-05T09:17:43.110Z,27.57
2023-05-05T09:18:43.093Z,27.60
2023-05-05T09:19:43.180Z,27.60
2023-05-05T09:20:43.228Z,27.60
2023-05-05T09:21:43.306Z,27.60
2023-05-05T09:22:43.346Z,27.60
2023-05-05T09:23:43.356Z,27.60
2023-05-05T09:24:43.427Z,27.58
2023-05-05T09:25:43.443Z,27.61
2023-05-05T09:26:43.523Z,27.62
2023-05-05T09:27:43.744Z,27.62
2023-05-05T09:28:43.615Z,27.65
2023-05-05T09:29:43.635Z,27.64
2023-05-05T09:30:43.703Z,27.67
2023-05-05T09:31:43.729Z,27.64
2023-05-05T09:32:43.841Z,27.65
2023-05-05T09:33:43.783Z,27.68
2023-05-05T09:34:43.807Z,27.68
2023-05-05T09:35:43.869Z,27.68
2023-05-05T09:36:43.910Z,27.71
2023-05-05T09:37:43.990Z,27.68
2023-05-05T09:38:43.938Z,27.68
2023-05-05T09:39:43.992Z,27.72
2023-05-05T09:40:44.006Z,27.75
2023-05-05T09:41:44.035Z,27.75
2023-05-05T09:42:44.209Z,27.77
2023-05-05T09:43:44.124Z,27.77
2023-05-05T09:44:44.154Z,27.77
2023-05-05T09:45:44.175Z,27.72
2023-05-05T09:46:44.277Z,27.75
2023-05-05T09:47:44.316Z,27.72
2023-05-05T09:48:44.364Z,27.74
2023-05-05T09:49:44.328Z,27.72
2023-05-05T09:50:44.370Z,27.68
2023-05-05T09:51:44.385Z,27.71
2023-05-05T09:52:44.732Z,27.69
2023-05-05T09:53:44.504Z,27.68
2023-05-05T09:54:44.470Z,27.72
2023-05-05T09:55:44.500Z,27.67
2023-05-05T09:56:44.539Z,27.67
2023-05-05T09:57:44.731Z,27.69
2023-05-05T09:58:44.624Z,27.71
2023-05-05T09:59:44.586Z,27.71
2023-05-05T10:00:44.570Z,27.71
2023-05-05T10:01:44.618Z,27.72
2023-05-05T10:02:44.623Z,27.75
2023-05-05T10:03:44.628Z,27.74
2023-05-05T10:04:44.669Z,27.72
2023-05-05T10:05:44.685Z,27.75
2023-05-05T10:06:44.750Z,27.74
2023-05-05T10:07:44.778Z,27.78
2023-05-05T10:08:44.837Z,27.72
2023-05-05T10:09:44.938Z,27.74
2023-05-05T10:10:44.924Z,27.72
2023-05-05T10:11:44.989Z,27.74
2023-05-05T10:12:45.049Z,27.74
2023-05-05T10:13:45.116Z,27.74
2023-05-05T10:14:45.175Z,27.74
2023-05-05T10:15:45.313Z,27.74
2023-05-05T10:16:45.416Z,27.69
2023-05-05T10:17:57.891Z,27.71
2023-05-05T10:18:46.434Z,27.68
2023-05-05T10:19:45.427Z,27.72
2023-05-05T10:20:45.442Z,27.69
2023-05-05T10:21:45.534Z,27.69
2023-05-05T10:22:45.640Z,27.68
2023-05-05T10:23:45.721Z,27.68
2023-05-05T10:24:45.773Z,27.67
2023-05-05T10:25:45.828Z,27.67
2023-05-05T10:26:45.907Z,27.64
2023-05-05T10:27:46.051Z,27.65
2023-05-05T10:28:46.030Z,27.65
2023-05-05T10:29:46.117Z,27.65
2023-05-05T10:30:46.214Z,27.64
2023-05-05T10:31:46.347Z,27.62
2023-05-05T10:32:59.895Z,27.61
2023-05-05T10:33:47.415Z,27.64
2023-05-05T10:34:46.382Z,27.62
2023-05-05T10:35:46.463Z,27.65
2023-05-05T10:36:46.552Z,27.69
2023-05-05T10:37:46.740Z,27.71
2023-05-05T10:38:46.623Z,27.75
2023-05-05T10:39:46.668Z,27.80
2023-05-05T10:40:46.724Z,27.83
2023-05-05T10:41:46.791Z,27.84
2023-05-05T10:42:46.772Z,27.77
2023-05-05T10:43:46.815Z,27.83
2023-05-05T10:44:46.861Z,27.84
2023-05-05T10:45:47.012Z,27.78
2023-05-05T10:46:46.987Z,27.78
2023-05-05T10:47:47.064Z,27.80
2023-05-05T10:48:47.152Z,27.80
2023-05-05T10:49:47.052Z,27.77
2023-05-05T10:50:47.101Z,27.78
2023-05-05T10:51:47.148Z,27.78
2023-05-05T10:52:47.229Z,27.77
2023-05-05T10:53:47.273Z,27.75
2023-05-05T10:54:47.319Z,27.78
2023-05-05T10:55:47.351Z,27.78
2023-05-05T10:56:47.378Z,27.78
2023-05-05T10:57:47.440Z,27.77
2023-05-05T10:58:58.377Z,27.77
2023-05-05T10:59:48.461Z,27.75
2023-05-05T11:00:47.510Z,27.78
2023-05-05T11:01:47.462Z,27.72
2023-05-05T11:02:47.459Z,27.78
2023-05-05T11:03:47.467Z,27.77
2023-05-05T11:04:47.398Z,27.75
2023-05-05T11:05:47.401Z,27.77
2023-05-05T11:06:47.411Z,27.75
2023-05-05T11:07:47.405Z,27.75
2023-05-05T11:08:47.414Z,27.80
2023-05-05T11:09:47.448Z,27.77
2023-05-05T11:10:47.519Z,27.78
2023-05-05T11:11:47.584Z,27.78
2023-05-05T11:12:47.674Z,27.78
2023-05-05T11:13:47.774Z,27.78
2023-05-05T11:14:47.785Z,27.77
2023-05-05T11:15:47.813Z,27.78
2023-05-05T11:16:48.207Z,27.78
2023-05-05T11:17:48.020Z,27.80
2023-05-05T11:18:48.001Z,27.78
2023-05-05T11:19:48.085Z,27.78
2023-05-05T11:20:48.149Z,27.81
2023-05-05T11:21:48.193Z,27.81
2023-05-05T11:22:48.241Z,27.85
2023-05-05T11:23:48.306Z,27.84
2023-05-05T11:24:48.362Z,27.81
2023-05-05T11:25:48.419Z,27.80
2023-05-05T11:26:48.453Z,27.91
2023-05-05T11:27:48.512Z,27.85
2023-05-05T11:28:48.785Z,27.89
2023-05-05T11:29:50.288Z,27.95
2023-05-05T11:30:48.688Z,27.97
2023-05-05T11:31:48.659Z,27.99
2023-05-05T11:32:48.651Z,27.95
2023-05-05T11:33:48.780Z,27.98
2023-05-05T11:34:48.648Z,27.98
2023-05-05T11:35:48.608Z,27.98
2023-05-05T11:36:48.666Z,27.97
2023-05-05T11:37:48.654Z,27.97
2023-05-05T11:38:48.672Z,27.97
2023-05-05T11:39:48.651Z,27.98
2023-05-05T11:40:48.620Z,27.95
2023-05-05T11:41:48.626Z,27.95
2023-05-05T11:42:48.629Z,27.99
2023-05-05T11:43:48.633Z,27.98
2023-05-05T11:44:48.607Z,28.01
2023-05-05T11:45:48.781Z,28.01
2023-05-05T11:46:48.594Z,28.02
2023-05-05T11:47:48.640Z,28.02
2023-05-05T11:48:48.627Z,28.04
2023-05-05T11:49:48.602Z,28.04
2023-05-05T11:50:48.638Z,28.02
2023-05-05T11:51:48.616Z,27.99
2023-05-05T11:52:48.597Z,27.99
2023-05-05T11:53:48.613Z,28.01
2023-05-05T11:54:48.651Z,28.01
2023-05-05T11:55:48.614Z,28.02
2023-05-05T11:56:48.619Z,28.02
2023-05-05T11:57:48.620Z,28.02
2023-05-05T11:58:48.628Z,27.99
2023-05-05T11:59:49.536Z,28.02
2023-05-05T12:00:48.647Z,28.01
2023-05-05T12:01:48.760Z,27.98
2023-05-05T12:02:48.671Z,27.98
2023-05-05T12:03:48.771Z,27.97
2023-05-05T12:04:48.681Z,27.98
2023-05-05T12:05:48.658Z,27.98
2023-05-05T12:06:48.663Z,27.98
2023-05-05T12:07:48.656Z,27.98
2023-05-05T12:08:48.708Z,28.02
2023-05-05T12:09:48.659Z,27.99
2023-05-05T12:10:48.655Z,28.01
2023-05-05T12:11:48.671Z,27.98
2023-05-05T12:12:48.690Z,27.99
2023-05-05T12:13:48.684Z,27.97
2023-05-05T12:14:48.674Z,27.98
2023-05-05T12:15:48.653Z,27.98
2023-05-05T12:16:48.674Z,27.98
2023-05-05T12:17:48.682Z,27.94
2023-05-05T12:18:48.685Z,27.97
2023-05-05T12:19:48.675Z,27.95
2023-05-05T12:20:48.643Z,27.95
2023-05-05T12:21:48.629Z,27.94
2023-05-05T12:22:48.694Z,27.92
2023-05-05T12:23:48.742Z,27.98
2023-05-05T12:24:48.671Z,27.95
2023-05-05T12:25:48.642Z,27.95
2023-05-05T12:26:48.656Z,27.97
2023-05-05T12:27:48.669Z,27.95
2023-05-05T12:28:48.681Z,27.95
2023-05-05T12:29:48.687Z,27.97
2023-05-05T12:30:48.705Z,27.95
2023-05-05T12:31:48.706Z,27.98
2023-05-05T12:32:48.663Z,27.97
2023-05-05T12:33:48.768Z,27.98
2023-05-05T12:34:48.697Z,27.97
2023-05-05T12:35:48.683Z,27.97
2023-05-05T12:36:48.730Z,27.94
2023-05-05T12:37:48.734Z,27.94
2023-05-05T12:38:48.734Z,27.94
2023-05-05T12:39:48.761Z,27.92
2023-05-05T12:40:48.777Z,27.92
2023-05-05T12:41:48.747Z,27.95
2023-05-05T12:42:48.749Z,27.95
2023-05-05T12:43:48.738Z,27.97
2023-05-05T12:44:48.738Z,27.95
2023-05-05T12:45:48.785Z,27.92
2023-05-05T12:46:48.730Z,27.95
2023-05-05T12:47:48.769Z,27.97
2023-05-05T12:48:48.765Z,27.98
2023-05-05T12:49:48.831Z,27.97
2023-05-05T12:50:48.756Z,28.01
2023-05-05T12:51:48.775Z,28.04
2023-05-05T12:52:48.749Z,28.04
2023-05-05T12:53:48.812Z,28.07